Time;durP1;ratioP1;P1;durP2;ratioP2;P2;SDS_P1;SDS_P2;PMS_P1;PMS_P2;Temp;Humidity;BMP_temperature;BMP_pressure;BME280_temperature;BME280_humidity;BME280_pressure;Samples;Min_cycle;Max_cycle;Signal;HPM_P1;HPM_P2
2023/03/17 00:01:54;;;;;;;10.50;4.43;;;;;;;-144.87;100.00;61487.56;4984111;28;20143;-86
2023/03/17 00:04:23;;;;;;;20.05;4.45;;;;;;;-144.87;100.00;61487.56;4953533;28;20026;-86
2023/03/17 00:06:51;;;;;;;8.02;4.20;;;;;;;-144.87;100.00;61487.56;4971802;28;20034;-86
2023/03/17 00:09:19;;;;;;;8.02;4.60;;;;;;;-144.87;100.00;61487.56;4974768;28;20041;-84
2023/03/17 00:12:08;;;;;;;6.97;4.57;;;;;;;-144.87;100.00;61487.56;4980761;28;20088;-86
2023/03/17 00:14:35;;;;;;;8.93;4.57;;;;;;;-144.87;100.00;61487.56;4967532;28;20085;-85
2023/03/17 00:17:01;;;;;;;6.68;4.47;;;;;;;-144.87;100.00;61487.56;4972674;28;20047;-86
2023/03/17 00:19:32;;;;;;;8.10;4.53;;;;;;;-144.87;100.00;61487.56;4960049;28;20070;-86
2023/03/17 00:22:01;;;;;;;9.07;4.20;;;;;;;-144.87;100.00;61487.56;4958062;28;20488;-85
2023/03/17 00:24:28;;;;;;;8.43;4.45;;;;;;;-144.87;100.00;61487.56;4972453;28;20050;-87
2023/03/17 00:26:56;;;;;;;9.15;4.95;;;;;;;-144.87;100.00;61487.56;4959748;28;20051;-85
2023/03/17 00:29:22;;;;;;;12.20;4.78;;;;;;;-144.87;100.00;61487.56;4962220;28;20042;-86
2023/03/17 00:31:49;;;;;;;8.82;4.40;;;;;;;-144.87;100.00;61487.56;4945709;28;20057;-86
2023/03/17 00:34:18;;;;;;;8.68;4.78;;;;;;;-144.87;100.00;61487.56;4939392;28;20057;-88
2023/03/17 00:36:49;;;;;;;7.97;4.63;;;;;;;-144.87;100.00;61487.56;4949378;28;20027;-86
2023/03/17 00:39:16;;;;;;;8.00;5.63;;;;;;;-144.87;100.00;61487.56;4939575;28;20110;-87
2023/03/17 00:41:42;;;;;;;8.60;5.00;;;;;;;-144.87;100.00;61487.56;4939335;28;20114;-85
2023/03/17 00:44:10;;;;;;;8.68;4.55;;;;;;;-144.87;100.00;61487.56;4960894;28;20027;-86
2023/03/17 00:46:37;;;;;;;7.72;4.65;;;;;;;-144.87;100.00;61487.56;4969357;28;20068;-85
2023/03/17 00:49:20;;;;;;;6.60;4.70;;;;;;;-144.87;100.00;61487.56;4957166;28;20034;-85
2023/03/17 00:51:48;;;;;;;9.07;4.93;;;;;;;-144.87;100.00;61487.56;4971835;28;20113;-85
2023/03/17 00:54:15;;;;;;;6.88;4.63;;;;;;;-144.87;100.00;61487.56;4939227;28;20027;-84
2023/03/17 00:57:00;;;;;;;9.05;4.82;;;;;;;-144.87;100.00;61487.56;4973682;28;20625;-86
2023/03/17 00:59:38;;;;;;;11.23;4.90;;;;;;;-144.87;100.00;61487.56;4972893;28;20559;-84
2023/03/17 01:02:05;;;;;;;10.65;5.15;;;;;;;-144.87;100.00;61487.56;4957157;28;20041;-85
2023/03/17 01:04:34;;;;;;;10.60;5.20;;;;;;;-144.87;100.00;61487.56;4941011;28;20035;-85
2023/03/17 01:07:00;;;;;;;9.18;5.05;;;;;;;-144.87;100.00;61487.56;4956705;28;20034;-83
2023/03/17 01:09:46;;;;;;;10.20;5.30;;;;;;;-144.87;100.00;61487.56;4952950;28;20035;-83
2023/03/17 01:12:13;;;;;;;10.93;5.00;;;;;;;-144.87;100.00;61487.56;4968930;28;20143;-86
2023/03/17 01:14:59;;;;;;;9.25;4.93;;;;;;;-144.87;100.00;61487.56;4978841;28;20446;-85
2023/03/17 01:17:27;;;;;;;9.43;4.90;;;;;;;-144.87;100.00;61487.56;4957901;28;20054;-85
2023/03/17 01:19:56;;;;;;;8.18;4.80;;;;;;;-144.87;100.00;61487.56;4978221;28;20106;-87
2023/03/17 01:22:23;;;;;;;13.00;4.72;;;;;;;-144.87;100.00;61487.56;4972003;28;20042;-85
2023/03/17 01:24:50;;;;;;;10.50;4.45;;;;;;;-144.87;100.00;61487.56;4909952;28;20035;-84
2023/03/17 01:27:18;;;;;;;8.20;4.65;;;;;;;-144.87;100.00;61487.56;4959908;28;20040;-85
2023/03/17 01:29:44;;;;;;;7.05;4.53;;;;;;;-144.87;100.00;61487.56;4974316;28;20042;-84
2023/03/17 01:32:11;;;;;;;10.02;4.85;;;;;;;-144.87;100.00;61487.56;4974148;28;20090;-85
2023/03/17 01:34:38;;;;;;;8.48;4.65;;;;;;;-144.87;100.00;61487.56;4954961;28;20046;-86
2023/03/17 01:37:05;;;;;;;10.30;5.05;;;;;;;-144.87;100.00;61487.56;4955596;28;20583;-85
2023/03/17 01:39:32;;;;;;;10.05;4.70;;;;;;;-144.87;100.00;61487.56;4960524;28;20035;-84
2023/03/17 01:42:00;;;;;;;10.10;5.85;;;;;;;-144.87;100.00;61487.56;4970759;28;20084;-84
2023/03/17 01:44:28;;;;;;;10.30;4.70;;;;;;;-144.87;100.00;61487.56;4955698;28;20177;-84
2023/03/17 01:46:54;;;;;;;6.70;4.60;;;;;;;-144.87;100.00;61487.56;4956961;28;20145;-85
2023/03/17 01:49:24;;;;;;;11.07;5.38;;;;;;;-144.87;100.00;61487.56;4931367;28;20070;-85
2023/03/17 01:52:05;;;;;;;9.10;5.00;;;;;;;-144.87;100.00;61487.56;4953436;28;20118;-85
2023/03/17 01:54:35;;;;;;;9.20;4.80;;;;;;;-144.87;100.00;61487.56;4980561;28;20045;-85
2023/03/17 01:57:15;;;;;;;9.52;4.97;;;;;;;-144.87;100.00;61487.56;4956437;28;20026;-84
2023/03/17 01:59:55;;;;;;;8.98;5.05;;;;;;;-144.87;100.00;61487.56;4981588;28;20038;-85
2023/03/17 02:02:27;;;;;;;8.53;5.27;;;;;;;-144.87;100.00;61487.56;4957446;28;20057;-85
2023/03/17 02:04:55;;;;;;;9.52;5.35;;;;;;;-144.87;100.00;61487.56;4974312;28;20042;-85
2023/03/17 02:07:23;;;;;;;8.32;4.70;;;;;;;-144.87;100.00;61487.56;4943952;28;20042;-84
2023/03/17 02:09:51;;;;;;;8.85;5.20;;;;;;;-144.87;100.00;61487.56;4957432;28;20122;-84
2023/03/17 02:12:21;;;;;;;7.78;5.40;;;;;;;-144.87;100.00;61487.56;4962720;28;20043;-84
2023/03/17 02:14:49;;;;;;;9.98;5.07;;;;;;;-144.87;100.00;61487.56;4947155;28;20452;-85
2023/03/17 02:17:35;;;;;;;6.95;4.72;;;;;;;-144.87;100.00;61487.56;4945847;28;20038;-85
2023/03/17 02:20:19;;;;;;;10.68;5.35;;;;;;;-144.87;100.00;61487.56;4935518;28;20200;-86
2023/03/17 02:22:51;;;;;;;10.10;5.25;;;;;;;-144.87;100.00;61487.56;4939739;28;20145;-83
2023/03/17 02:25:19;;;;;;;13.30;5.00;;;;;;;-144.87;100.00;61487.56;4959255;28;20038;-85
2023/03/17 02:27:49;;;;;;;9.85;4.80;;;;;;;-144.87;100.00;61487.56;4935920;28;20667;-85
2023/03/17 02:30:18;;;;;;;12.00;6.05;;;;;;;-144.87;100.00;61487.56;4952959;28;20058;-85
2023/03/17 02:32:44;;;;;;;10.13;4.90;;;;;;;-144.87;100.00;61487.56;4962523;28;20027;-85
2023/03/17 02:35:10;;;;;;;7.57;5.10;;;;;;;-144.87;100.00;61487.56;4957087;28;20038;-85
2023/03/17 02:37:37;;;;;;;10.68;5.05;;;;;;;-144.87;100.00;61487.56;4972206;28;20049;-84
2023/03/17 02:40:04;;;;;;;8.20;4.82;;;;;;;-144.87;100.00;61487.56;4954767;28;20065;-83
2023/03/17 02:42:33;;;;;;;7.35;4.57;;;;;;;-144.87;100.00;61487.56;4956909;28;20035;-85
2023/03/17 02:44:59;;;;;;;8.30;4.70;;;;;;;-144.87;100.00;61487.56;4943893;28;20042;-85
2023/03/17 02:47:26;;;;;;;9.23;5.05;;;;;;;-144.87;100.00;61487.56;4957922;28;20563;-85
2023/03/17 02:49:53;;;;;;;8.88;4.85;;;;;;;-144.87;100.00;61487.56;4947111;28;20042;-84
2023/03/17 02:52:20;;;;;;;7.63;4.68;;;;;;;-144.87;100.00;61487.56;4959944;28;20078;-84
2023/03/17 02:54:46;;;;;;;9.48;4.90;;;;;;;-144.87;100.00;61487.56;4954961;28;20089;-84
2023/03/17 02:57:13;;;;;;;8.73;4.63;;;;;;;-144.87;100.00;61487.56;4958013;28;20046;-84
2023/03/17 02:59:40;;;;;;;8.20;4.38;;;;;;;-144.87;100.00;61487.56;4978374;28;20039;-84
2023/03/17 03:02:06;;;;;;;8.68;4.93;;;;;;;-144.87;100.00;61487.56;4958151;28;20086;-85
2023/03/17 03:04:35;;;;;;;6.25;4.45;;;;;;;-144.87;100.00;61487.56;4959406;28;20121;-85
2023/03/17 03:07:01;;;;;;;9.05;4.70;;;;;;;-144.87;100.00;61487.56;4972613;28;20031;-85
2023/03/17 03:09:28;;;;;;;8.70;4.88;;;;;;;-144.87;100.00;61487.56;4976958;28;20039;-85
2023/03/17 03:11:55;;;;;;;7.38;4.55;;;;;;;-144.87;100.00;61487.56;4974608;28;20796;-84
2023/03/17 03:14:23;;;;;;;8.98;4.40;;;;;;;-144.87;100.00;61487.56;4950794;28;20046;-85
2023/03/17 03:16:51;;;;;;;9.00;4.70;;;;;;;-144.87;100.00;61487.56;4974041;28;20074;-83
2023/03/17 03:19:17;;;;;;;8.93;4.50;;;;;;;-144.87;100.00;61487.56;4957911;28;20077;-85
2023/03/17 03:21:44;;;;;;;8.18;4.47;;;;;;;-144.87;100.00;61487.56;4974406;28;20046;-84
2023/03/17 03:24:13;;;;;;;7.80;4.95;;;;;;;-144.87;100.00;61487.56;4962387;28;20042;-84
2023/03/17 03:26:40;;;;;;;8.43;4.90;;;;;;;-144.87;100.00;61487.56;4970735;28;20046;-84
2023/03/17 03:29:06;;;;;;;13.20;4.93;;;;;;;-144.87;100.00;61487.56;4942406;28;20038;-85
2023/03/17 03:31:34;;;;;;;7.25;4.25;;;;;;;-144.87;100.00;61487.56;4959545;28;20042;-84
2023/03/17 03:34:00;;;;;;;10.25;4.85;;;;;;;-144.87;100.00;61487.56;4978943;28;20115;-85
2023/03/17 03:36:27;;;;;;;7.13;4.82;;;;;;;-144.87;100.00;61487.56;4978680;28;20546;-85
2023/03/17 03:38:53;;;;;;;9.70;5.00;;;;;;;-144.87;100.00;61487.56;4977564;28;20050;-86
2023/03/17 03:41:20;;;;;;;8.00;4.75;;;;;;;-144.87;100.00;61487.56;4961587;28;20030;-86
2023/03/17 03:44:23;;;;;;;6.57;4.25;;;;;;;-144.87;100.00;61487.56;4975129;28;20101;-86
2023/03/17 03:46:50;;;;;;;9.00;4.80;;;;;;;-144.87;100.00;61487.56;4973760;28;20031;-86
2023/03/17 03:49:16;;;;;;;8.18;4.60;;;;;;;-144.87;100.00;61487.56;4950062;28;20549;-86
2023/03/17 03:51:46;;;;;;;9.43;5.47;;;;;;;-144.87;100.00;61487.56;4953981;28;20030;-85
2023/03/17 03:54:12;;;;;;;6.85;4.63;;;;;;;-144.87;100.00;61487.56;4973846;28;20424;-85
2023/03/17 03:56:39;;;;;;;7.65;4.30;;;;;;;-144.87;100.00;61487.56;4977814;28;20086;-85
2023/03/17 03:59:06;;;;;;;10.50;5.50;;;;;;;-144.87;100.00;61487.56;4959269;28;20038;-86
2023/03/17 04:01:32;;;;;;;7.97;4.65;;;;;;;-144.87;100.00;61487.56;4962887;28;20042;-86
2023/03/17 04:04:00;;;;;;;6.03;4.07;;;;;;;-144.87;100.00;61487.56;4963053;28;20042;-85
2023/03/17 04:06:27;;;;;;;7.68;4.60;;;;;;;-144.87;100.00;61487.56;4953937;28;20124;-85
2023/03/17 04:08:53;;;;;;;9.35;4.75;;;;;;;-144.87;100.00;61487.56;4975585;28;20135;-84
2023/03/17 04:11:20;;;;;;;6.72;4.45;;;;;;;-144.87;100.00;61487.56;4972238;28;20053;-84
2023/03/17 04:13:47;;;;;;;7.25;4.03;;;;;;;-144.87;100.00;61487.56;4941399;28;20066;-83
2023/03/17 04:16:16;;;;;;;10.25;5.03;;;;;;;-144.87;100.00;61487.56;4975441;28;20072;-83
2023/03/17 04:19:01;;;;;;;10.02;4.72;;;;;;;-144.87;100.00;61487.56;4944337;28;20353;-84
2023/03/17 04:21:27;;;;;;;6.93;4.47;;;;;;;-144.87;100.00;61487.56;4979600;28;20026;-85
2023/03/17 04:23:54;;;;;;;12.23;4.57;;;;;;;-144.87;100.00;61487.56;4963055;28;20048;-84
2023/03/17 04:26:21;;;;;;;7.00;4.63;;;;;;;-144.87;100.00;61487.56;4944520;28;20038;-84
2023/03/17 04:28:49;;;;;;;9.10;4.63;;;;;;;-144.87;100.00;61487.56;4959485;28;20027;-84
2023/03/17 04:31:35;;;;;;;7.03;4.40;;;;;;;-144.87;100.00;61487.56;4976171;28;20042;-85
2023/03/17 04:34:04;;;;;;;7.93;4.55;;;;;;;-144.87;100.00;61487.56;4974021;28;20030;-85
2023/03/17 04:36:30;;;;;;;9.77;5.00;;;;;;;-144.87;100.00;61487.56;4956108;28;20031;-85
2023/03/17 04:38:56;;;;;;;7.75;5.15;;;;;;;-144.87;100.00;61487.56;4966869;28;20035;-84
2023/03/17 04:41:23;;;;;;;10.35;4.47;;;;;;;-144.87;100.00;61487.56;4950192;28;20431;-85
2023/03/17 04:44:08;;;;;;;9.82;4.90;;;;;;;-144.87;100.00;61487.56;4947142;28;20065;-85
2023/03/17 04:46:35;;;;;;;8.77;4.65;;;;;;;-144.87;100.00;61487.56;4970757;28;20031;-85
2023/03/17 04:49:03;;;;;;;7.07;4.93;;;;;;;-144.87;100.00;61487.56;4974607;28;20396;-85
2023/03/17 04:51:30;;;;;;;8.32;4.53;;;;;;;-144.87;100.00;61487.56;4952466;28;20386;-84
2023/03/17 04:53:56;;;;;;;8.40;4.85;;;;;;;-144.87;100.00;61487.56;4958555;28;20065;-84
2023/03/17 04:56:24;;;;;;;12.20;4.65;;;;;;;-144.87;100.00;61487.56;4973939;28;20469;-86
2023/03/17 04:58:51;;;;;;;9.10;4.25;;;;;;;-144.87;100.00;61487.56;4955353;28;20074;-83
2023/03/17 05:01:17;;;;;;;9.23;4.80;;;;;;;-144.87;100.00;61487.56;4961063;28;20389;-85
2023/03/17 05:03:44;;;;;;;9.18;4.40;;;;;;;-144.87;100.00;61487.56;4963598;28;20069;-85
2023/03/17 05:06:10;;;;;;;8.48;4.82;;;;;;;-144.87;100.00;61487.56;4959342;28;20066;-85
2023/03/17 05:08:37;;;;;;;6.65;4.68;;;;;;;-144.87;100.00;61487.56;4960355;28;20039;-87
2023/03/17 05:11:03;;;;;;;14.88;4.55;;;;;;;-144.87;100.00;61487.56;4973083;28;20101;-86
2023/03/17 05:13:30;;;;;;;11.88;4.30;;;;;;;-144.87;100.00;61487.56;4961816;28;20078;-85
2023/03/17 05:15:58;;;;;;;6.72;4.43;;;;;;;-144.87;100.00;61487.56;4956449;28;20137;-86
2023/03/17 05:18:26;;;;;;;7.13;4.57;;;;;;;-144.87;100.00;61487.56;4954344;28;20043;-86
2023/03/17 05:20:53;;;;;;;8.65;4.50;;;;;;;-144.87;100.00;61487.56;4957856;28;20031;-85
2023/03/17 05:23:19;;;;;;;7.25;4.63;;;;;;;-144.87;100.00;61487.56;4943916;28;20047;-84
2023/03/17 05:25:47;;;;;;;10.55;4.85;;;;;;;-144.87;100.00;61487.56;4973565;28;20488;-83
2023/03/17 05:28:13;;;;;;;8.52;4.47;;;;;;;-144.87;100.00;61487.56;4976666;28;20042;-84
2023/03/17 05:30:43;;;;;;;9.02;4.88;;;;;;;-144.87;100.00;61487.56;4965833;28;20611;-85
2023/03/17 05:33:09;;;;;;;8.68;4.70;;;;;;;-144.87;100.00;61487.56;4959971;28;20070;-85
2023/03/17 05:35:36;;;;;;;8.52;5.28;;;;;;;-144.87;100.00;61487.56;4962482;28;20068;-85
2023/03/17 05:38:05;;;;;;;14.10;5.05;;;;;;;-144.87;100.00;61487.56;4952560;28;20298;-83
2023/03/17 05:40:34;;;;;;;7.82;4.50;;;;;;;-144.87;100.00;61487.56;4946426;28;20038;-84
2023/03/17 05:43:02;;;;;;;8.18;4.43;;;;;;;-144.87;100.00;61487.56;4973362;28;20135;-85
2023/03/17 05:45:29;;;;;;;10.10;4.38;;;;;;;-144.87;100.00;61487.56;4970815;28;20042;-85
2023/03/17 05:47:56;;;;;;;10.55;4.95;;;;;;;-144.87;100.00;61487.56;4980554;28;20050;-85
2023/03/17 05:50:23;;;;;;;15.27;4.60;;;;;;;-144.87;100.00;61487.56;4964831;28;20500;-85
2023/03/17 05:52:51;;;;;;;7.53;4.53;;;;;;;-144.87;100.00;61487.56;4945914;28;20034;-84
2023/03/17 05:55:18;;;;;;;7.15;4.40;;;;;;;-144.87;100.00;61487.56;4944636;28;20043;-84
2023/03/17 05:57:46;;;;;;;7.30;4.28;;;;;;;-144.87;100.00;61487.56;4937844;28;20031;-84
2023/03/17 06:00:15;;;;;;;9.00;4.57;;;;;;;-144.87;100.00;61487.56;4934623;28;20397;-83
2023/03/17 06:02:42;;;;;;;10.77;4.60;;;;;;;-144.87;100.00;61487.56;4978426;28;20042;-84
2023/03/17 06:05:09;;;;;;;8.40;4.53;;;;;;;-144.87;100.00;61487.56;4944397;28;20113;-83
2023/03/17 06:07:36;;;;;;;9.43;4.50;;;;;;;-144.87;100.00;61487.56;4967999;28;20197;-84
2023/03/17 06:10:04;;;;;;;12.88;4.82;;;;;;;-144.87;100.00;61487.56;4953769;28;20084;-85
2023/03/17 06:12:31;;;;;;;15.38;4.40;;;;;;;-144.87;100.00;61487.56;4958972;28;20035;-84
2023/03/17 06:14:57;;;;;;;9.70;4.65;;;;;;;-144.87;100.00;61487.56;4956789;28;20037;-84
2023/03/17 06:17:24;;;;;;;8.50;4.78;;;;;;;-144.87;100.00;61487.56;4952995;28;20049;-86
2023/03/17 06:19:50;;;;;;;8.00;4.35;;;;;;;-144.87;100.00;61487.56;4973640;28;20139;-85
2023/03/17 06:22:16;;;;;;;10.02;5.07;;;;;;;-144.87;100.00;61487.56;4971353;28;20035;-85
2023/03/17 06:24:43;;;;;;;11.32;4.78;;;;;;;-144.87;100.00;61487.56;4940054;28;20034;-85
2023/03/17 06:27:10;;;;;;;11.50;4.72;;;;;;;-144.87;100.00;61487.56;4937620;28;20093;-86
2023/03/17 06:29:37;;;;;;;6.57;4.20;;;;;;;-144.87;100.00;61487.56;4968632;28;20113;-85
2023/03/17 06:32:03;;;;;;;12.23;4.55;;;;;;;-144.87;100.00;61487.56;4971948;28;20089;-86
2023/03/17 06:34:30;;;;;;;8.60;4.32;;;;;;;-144.87;100.00;61487.56;4973487;28;20034;-86
2023/03/17 06:36:56;;;;;;;12.35;5.28;;;;;;;-144.87;100.00;61487.56;4966221;28;20034;-86
2023/03/17 06:39:22;;;;;;;9.38;4.57;;;;;;;-144.87;100.00;61487.56;4952196;28;20066;-85
2023/03/17 06:41:49;;;;;;;7.82;4.53;;;;;;;-144.87;100.00;61487.56;4955083;28;20062;-84
2023/03/17 06:44:15;;;;;;;8.35;4.90;;;;;;;-144.87;100.00;61487.56;4956869;28;20031;-85
2023/03/17 06:46:42;;;;;;;9.32;5.50;;;;;;;-144.87;100.00;61487.56;4957038;28;20034;-84
2023/03/17 06:49:12;;;;;;;9.82;5.07;;;;;;;-144.87;100.00;61487.56;4940862;28;20497;-84
2023/03/17 06:51:39;;;;;;;9.30;4.15;;;;;;;-144.87;100.00;61487.56;4971296;28;20034;-85
2023/03/17 06:54:06;;;;;;;9.63;4.63;;;;;;;-144.87;100.00;61487.56;4972617;28;20039;-86
2023/03/17 06:56:33;;;;;;;8.20;4.50;;;;;;;-144.87;100.00;61487.56;4970658;28;20042;-84
2023/03/17 06:58:59;;;;;;;9.93;4.53;;;;;;;-144.87;100.00;61487.56;4980005;28;20121;-85
2023/03/17 07:01:26;;;;;;;8.20;4.15;;;;;;;-144.87;100.00;61487.56;4973009;28;20144;-83
2023/03/17 07:03:53;;;;;;;6.47;4.28;;;;;;;-144.87;100.00;61487.56;4979433;28;20723;-86
2023/03/17 07:06:19;;;;;;;9.48;4.50;;;;;;;-144.87;100.00;61487.56;4975854;28;20109;-84
2023/03/17 07:08:46;;;;;;;8.98;4.68;;;;;;;-144.87;100.00;61487.56;4952026;28;20043;-84
2023/03/17 07:11:13;;;;;;;14.20;5.28;;;;;;;-144.87;100.00;61487.56;4954214;28;20039;-85
2023/03/17 07:13:46;;;;;;;8.90;4.40;;;;;;;-144.87;100.00;61487.56;4956709;28;20030;-84
2023/03/17 07:16:15;;;;;;;8.95;4.57;;;;;;;-144.87;100.00;61487.56;4967979;28;20031;-85
2023/03/17 07:18:42;;;;;;;7.32;4.10;;;;;;;-144.87;100.00;61487.56;4971929;28;20145;-85
2023/03/17 07:21:08;;;;;;;8.73;5.47;;;;;;;-144.87;100.00;61487.56;4972979;28;20055;-81
2023/03/17 07:23:36;;;;;;;8.70;4.60;;;;;;;-144.87;100.00;61487.56;4959887;28;20031;-83
2023/03/17 07:26:02;;;;;;;9.30;4.95;;;;;;;-144.87;100.00;61487.56;4966245;28;20034;-83
2023/03/17 07:28:29;;;;;;;11.23;4.30;;;;;;;-144.87;100.00;61487.56;4972739;28;20038;-83
2023/03/17 07:30:56;;;;;;;12.98;4.55;;;;;;;-144.87;100.00;61487.56;4954412;28;20023;-83
2023/03/17 07:33:24;;;;;;;7.90;4.40;;;;;;;-144.87;100.00;61487.56;4940082;28;20050;-84
2023/03/17 07:35:52;;;;;;;8.07;4.60;;;;;;;-144.87;100.00;61487.56;4958292;28;20062;-83
2023/03/17 07:38:19;;;;;;;9.68;4.10;;;;;;;-144.87;100.00;61487.56;4946179;28;20058;-84
2023/03/17 07:40:47;;;;;;;18.70;5.68;;;;;;;-144.87;100.00;61487.56;4970096;28;20117;-83
2023/03/17 07:43:15;;;;;;;9.05;5.00;;;;;;;-144.87;100.00;61487.56;4938129;28;20047;-84
2023/03/17 07:45:43;;;;;;;7.10;4.13;;;;;;;-144.87;100.00;61487.56;4954777;28;20089;-85
2023/03/17 07:48:09;;;;;;;11.10;4.93;;;;;;;-144.87;100.00;61487.56;4951644;28;20083;-83
2023/03/17 07:50:36;;;;;;;8.93;4.88;;;;;;;-144.87;100.00;61487.56;4937137;29;20412;-84
2023/03/17 07:53:03;;;;;;;11.10;4.57;;;;;;;-144.87;100.00;61487.56;4933950;28;20035;-84
2023/03/17 07:55:31;;;;;;;12.02;5.32;;;;;;;-144.87;100.00;61487.56;4940264;28;20376;-84
2023/03/17 07:57:57;;;;;;;9.15;4.53;;;;;;;-144.87;100.00;61487.56;4958309;28;20031;-84
2023/03/17 08:00:25;;;;;;;6.65;4.18;;;;;;;-144.87;100.00;61487.56;4957556;28;20477;-85
2023/03/17 08:02:52;;;;;;;9.30;4.72;;;;;;;-144.87;100.00;61487.56;4939813;28;20496;-85
2023/03/17 08:05:18;;;;;;;9.48;4.60;;;;;;;-144.87;100.00;61487.56;4952543;28;20050;-85
2023/03/17 08:07:45;;;;;;;12.13;4.30;;;;;;;-144.87;100.00;61487.56;4936378;28;20035;-85
2023/03/17 08:10:12;;;;;;;8.23;4.32;;;;;;;-144.87;100.00;61487.56;4945656;28;20493;-85
2023/03/17 08:12:40;;;;;;;10.10;4.35;;;;;;;-144.87;100.00;61487.56;4932814;29;20047;-84
2023/03/17 08:15:08;;;;;;;9.65;4.55;;;;;;;-144.87;100.00;61487.56;4947989;29;20035;-84
2023/03/17 08:17:35;;;;;;;8.50;4.60;;;;;;;-144.87;100.00;61487.56;4935015;29;20035;-85
2023/03/17 08:20:03;;;;;;;8.15;4.25;;;;;;;-144.87;100.00;61487.56;4935770;29;20043;-86
2023/03/17 08:22:29;;;;;;;11.05;4.28;;;;;;;-144.87;100.00;61487.56;4933887;29;20060;-85
2023/03/17 08:24:56;;;;;;;11.40;4.20;;;;;;;-144.87;100.00;61487.56;4927475;29;20058;-83
2023/03/17 08:27:22;;;;;;;8.43;3.95;;;;;;;-144.87;100.00;61487.56;4935342;29;20115;-84
2023/03/17 08:29:49;;;;;;;7.95;4.28;;;;;;;-144.87;100.00;61487.56;4935770;29;20122;-84
2023/03/17 08:32:17;;;;;;;7.55;4.45;;;;;;;-144.87;100.00;61487.56;4951887;29;20031;-85
2023/03/17 08:34:45;;;;;;;10.23;4.10;;;;;;;-144.87;100.00;61487.56;4935689;29;20039;-89
2023/03/17 08:37:11;;;;;;;11.05;4.60;;;;;;;-144.87;100.00;61487.56;4919395;29;20067;-86
2023/03/17 08:39:37;;;;;;;12.48;4.72;;;;;;;-144.87;100.00;61487.56;4934981;29;20161;-84
2023/03/17 08:42:04;;;;;;;7.43;4.47;;;;;;;-144.87;100.00;61487.56;4934953;29;20047;-84
2023/03/17 08:44:32;;;;;;;8.95;4.13;;;;;;;-144.87;100.00;61487.56;4918994;29;20034;-84
2023/03/17 08:46:58;;;;;;;9.05;4.07;;;;;;;-144.87;100.00;61487.56;4934339;29;20035;-84
2023/03/17 08:49:25;;;;;;;10.20;4.30;;;;;;;-144.87;100.00;61487.56;4951835;28;20141;-86
2023/03/17 08:51:52;;;;;;;8.00;4.20;;;;;;;-144.87;100.00;61487.56;4971768;28;20140;-85
2023/03/17 08:54:18;;;;;;;10.00;4.53;;;;;;;-144.87;100.00;61487.56;4939879;29;20039;-83
2023/03/17 08:56:45;;;;;;;6.80;4.10;;;;;;;-144.87;100.00;61487.56;4935675;29;20039;-85
2023/03/17 08:59:11;;;;;;;8.02;4.18;;;;;;;-144.87;100.00;61487.56;4936267;29;20086;-84
2023/03/17 09:01:39;;;;;;;7.55;4.20;;;;;;;-144.87;100.00;61487.56;4962050;28;20129;-85
2023/03/17 09:04:05;;;;;;;9.30;4.38;;;;;;;-144.87;100.00;61487.56;4958275;28;20039;-83
2023/03/17 09:06:31;;;;;;;9.32;4.22;;;;;;;-144.87;100.00;61487.56;4974998;28;20061;-74
2023/03/17 09:08:59;;;;;;;9.48;4.32;;;;;;;-144.87;100.00;61487.56;4938347;29;20145;-75
2023/03/17 09:11:31;;;;;;;7.15;4.35;;;;;;;-144.87;100.00;61487.56;4922793;29;20163;-74
2023/03/17 09:13:58;;;;;;;8.27;4.07;;;;;;;-144.87;100.00;61487.56;4938829;29;20035;-74
2023/03/17 09:16:25;;;;;;;10.80;4.85;;;;;;;-144.87;100.00;61487.56;4939709;28;20101;-74
2023/03/17 09:18:52;;;;;;;10.73;4.30;;;;;;;-144.87;100.00;61487.56;4955084;28;20039;-74
2023/03/17 09:21:18;;;;;;;12.60;4.57;;;;;;;-144.87;100.00;61487.56;4948870;29;20117;-74
2023/03/17 09:23:45;;;;;;;10.18;4.43;;;;;;;-144.87;100.00;61487.56;4938508;28;20084;-74
2023/03/17 09:26:11;;;;;;;8.77;4.40;;;;;;;-144.87;100.00;61487.56;4965016;28;20550;-73
2023/03/17 09:28:38;;;;;;;11.90;4.00;;;;;;;-144.87;100.00;61487.56;4941650;28;20069;-74
2023/03/17 09:31:10;;;;;;;12.60;5.05;;;;;;;-144.87;100.00;61487.56;4957639;28;20039;-75
2023/03/17 09:33:40;;;;;;;8.48;4.18;;;;;;;-144.87;100.00;61487.56;4941085;28;20097;-74
2023/03/17 09:36:07;;;;;;;6.93;3.90;;;;;;;-144.87;100.00;61487.56;4957977;28;20047;-75
2023/03/17 09:38:34;;;;;;;12.00;4.32;;;;;;;-144.87;100.00;61487.56;4955734;28;20047;-75
2023/03/17 09:41:18;;;;;;;7.65;4.15;;;;;;;-144.87;100.00;61487.56;4955009;29;20085;-75
2023/03/17 09:44:41;;;;;;;8.85;4.97;;;;;;;-144.87;100.00;61487.56;4954725;29;20039;-75
2023/03/17 09:47:46;;;;;;;8.18;3.85;;;;;;;-144.87;100.00;61487.56;4858745;29;20077;-83
2023/03/17 09:50:21;;;;;;;13.30;5.07;;;;;;;-144.87;100.00;61487.56;4845604;29;20080;-84
2023/03/17 09:52:48;;;;;;;11.38;3.92;;;;;;;-144.87;100.00;61487.56;4954312;28;20043;-82
2023/03/17 09:55:28;;;;;;;9.23;4.20;;;;;;;-144.87;100.00;61487.56;4936057;29;20034;-85
2023/03/17 09:57:56;;;;;;;9.40;4.75;;;;;;;-144.87;100.00;61487.56;4951800;29;20039;-83
2023/03/17 10:00:28;;;;;;;11.35;4.53;;;;;;;-144.87;100.00;61487.56;4935916;28;20064;-83
2023/03/17 10:02:56;;;;;;;12.93;4.75;;;;;;;-144.87;100.00;61487.56;4946787;29;20028;-83
2023/03/17 10:05:26;;;;;;;7.72;4.63;;;;;;;-144.87;100.00;61487.56;4931591;29;20552;-84
2023/03/17 10:08:08;;;;;;;9.27;4.32;;;;;;;-144.87;100.00;61487.56;4955926;28;20164;-83
2023/03/17 10:10:56;;;;;;;14.65;4.57;;;;;;;-144.87;100.00;61487.56;4948725;28;20039;-83
2023/03/17 10:13:25;;;;;;;12.93;4.90;;;;;;;-144.87;100.00;61487.56;4933961;29;20106;-82
2023/03/17 10:16:02;;;;;;;13.27;4.78;;;;;;;-144.87;100.00;61487.56;4953864;28;20152;-83
2023/03/17 10:18:47;;;;;;;12.88;5.20;;;;;;;-144.87;100.00;61487.56;4923238;29;20078;-84
2023/03/17 10:21:19;;;;;;;10.32;4.95;;;;;;;-144.87;100.00;61487.56;4933416;28;20047;-80
2023/03/17 10:23:46;;;;;;;9.88;4.88;;;;;;;-144.87;100.00;61487.56;4920820;29;20110;-82
2023/03/17 10:26:32;;;;;;;8.85;4.75;;;;;;;-144.87;100.00;61487.56;4923491;28;20126;-83
2023/03/17 10:29:03;;;;;;;15.50;6.10;;;;;;;-144.87;100.00;61487.56;4931102;29;20062;-82
2023/03/17 10:31:33;;;;;;;8.40;4.68;;;;;;;-144.87;100.00;61487.56;4926705;28;20059;-83
2023/03/17 10:34:11;;;;;;;9.38;4.97;;;;;;;-144.87;100.00;61487.56;4935139;28;20023;-81
2023/03/17 10:36:50;;;;;;;18.40;5.22;;;;;;;-144.87;100.00;61487.56;4931659;28;20078;-75
2023/03/17 10:39:22;;;;;;;7.43;4.57;;;;;;;-144.87;100.00;61487.56;4949801;28;20542;-73
2023/03/17 10:42:07;;;;;;;12.60;5.00;;;;;;;-144.87;100.00;61487.56;4950130;28;20042;-83
2023/03/17 10:44:55;;;;;;;9.02;5.25;;;;;;;-144.87;100.00;61487.56;4952734;28;20035;-83
2023/03/17 10:47:32;;;;;;;11.77;5.72;;;;;;;-144.87;100.00;61487.56;4927818;29;20094;-81
2023/03/17 10:50:23;;;;;;;13.63;5.57;;;;;;;-144.87;100.00;61487.56;4960433;28;20042;-82
2023/03/17 10:52:58;;;;;;;12.57;5.13;;;;;;;-144.87;100.00;61487.56;4973548;28;20030;-83
2023/03/17 10:55:34;;;;;;;9.77;5.22;;;;;;;-144.87;100.00;61487.56;4962257;28;20053;-82
2023/03/17 10:58:21;;;;;;;11.82;5.68;;;;;;;-144.87;100.00;61487.56;4981226;28;20038;-82
2023/03/17 11:01:01;;;;;;;10.50;5.13;;;;;;;-144.87;100.00;61487.56;4969533;28;20041;-82
2023/03/17 11:03:34;;;;;;;8.18;5.18;;;;;;;-144.87;100.00;61487.56;4975273;28;20034;-74
2023/03/17 11:06:12;;;;;;;11.48;5.75;;;;;;;-144.87;100.00;61487.56;4948360;28;20039;-74
2023/03/17 11:08:46;;;;;;;10.57;5.32;;;;;;;-144.87;100.00;61487.56;4961131;28;20034;-74
2023/03/17 11:11:36;;;;;;;9.55;6.15;;;;;;;-144.87;100.00;61487.56;4975388;28;20113;-75
2023/03/17 11:14:12;;;;;;;14.73;6.40;;;;;;;-144.87;100.00;61487.56;4958173;28;20058;-74
2023/03/17 11:17:10;;;;;;;9.80;5.63;;;;;;;-144.87;100.00;61487.56;4972722;28;20109;-75
2023/03/17 11:20:06;;;;;;;9.10;5.75;;;;;;;-144.87;100.00;61487.56;4968063;28;20034;-74